Time;durP1;ratioP1;P1;durP2;ratioP2;P2;SDS_P1;SDS_P2;PMS_P1;PMS_P2;Temp;Humidity;BMP_temperature;BMP_pressure;BME280_temperature;BME280_humidity;BME280_pressure;Samples;Min_cycle;Max_cycle;Signal;HPM_P1;HPM_P2
2021/03/17 00:00:47;;;;;;;31.12;18.60;;;;;;;6.14;67.93;99939.92;1733889;81;21598;-70
2021/03/17 00:03:13;;;;;;;32.93;17.87;;;;;;;6.26;67.74;99936.23;1727039;81;27083;-70
2021/03/17 00:05:41;;;;;;;32.93;17.45;;;;;;;6.17;67.92;99943.59;1722730;81;24659;-69
2021/03/17 00:08:07;;;;;;;32.50;18.70;;;;;;;6.21;67.80;99943.69;1717480;81;21629;-70
2021/03/17 00:10:36;;;;;;;28.98;17.52;;;;;;;6.29;67.69;99940.76;1729361;81;26980;-70
2021/03/17 00:13:03;;;;;;;36.03;18.52;;;;;;;6.37;67.33;99946.64;1741807;81;21696;-71
2021/03/17 00:15:31;;;;;;;28.57;16.67;;;;;;;6.32;67.27;99944.89;1728641;81;21256;-72
2021/03/17 00:17:57;;;;;;;32.80;16.80;;;;;;;6.27;67.39;99948.40;1720584;81;22690;-70
2021/03/17 00:20:25;;;;;;;33.35;18.20;;;;;;;6.06;67.98;99949.77;1724416;81;29253;-71
2021/03/17 00:22:51;;;;;;;30.80;16.85;;;;;;;5.99;68.42;99944.72;1734990;81;21720;-72
2021/03/17 00:25:24;;;;;;;30.85;17.25;;;;;;;6.03;68.10;99946.09;1748558;81;21917;-70
2021/03/17 00:27:49;;;;;;;31.97;16.52;;;;;;;5.90;68.63;99941.05;1746867;81;21230;-71
2021/03/17 00:30:16;;;;;;;29.30;17.03;;;;;;;5.81;68.86;99938.75;1743231;81;23842;-71
2021/03/17 00:32:42;;;;;;;33.75;16.48;;;;;;;5.79;69.00;99935.91;1702373;81;21662;-72
2021/03/17 00:35:09;;;;;;;26.80;15.85;;;;;;;5.75;69.19;99936.16;1732386;81;26814;-71
2021/03/17 00:37:35;;;;;;;30.45;15.58;;;;;;;5.74;69.29;99937.60;1718158;81;22195;-70
2021/03/17 00:40:00;;;;;;;27.52;14.20;;;;;;;5.59;70.06;99938.41;1730328;81;26599;-69
2021/03/17 00:42:26;;;;;;;29.20;15.20;;;;;;;5.45;70.46;99938.74;1733038;81;22812;-70
2021/03/17 00:44:52;;;;;;;27.32;15.60;;;;;;;5.57;70.00;99935.09;1715079;82;28740;-69
2021/03/17 00:47:18;;;;;;;26.95;15.23;;;;;;;5.58;70.07;99936.77;1706452;81;26802;-70
2021/03/17 00:49:43;;;;;;;31.10;15.90;;;;;;;5.53;70.28;99940.23;1696629;82;21385;-70
2021/03/17 00:52:09;;;;;;;28.20;14.83;;;;;;;5.47;70.42;99936.81;1712859;81;25470;-70
2021/03/17 00:54:36;;;;;;;27.93;14.85;;;;;;;5.54;70.28;99938.80;1743230;81;32590;-70
2021/03/17 00:57:01;;;;;;;28.90;15.13;;;;;;;5.47;70.51;99939.44;1746623;81;28011;-68
2021/03/17 00:59:27;;;;;;;26.35;15.05;;;;;;;5.52;70.39;99944.65;1749423;81;26755;-70
2021/03/17 01:01:53;;;;;;;31.90;15.50;;;;;;;5.62;69.99;99940.77;1709403;81;21249;-70
2021/03/17 01:04:19;;;;;;;27.27;14.27;;;;;;;5.46;70.77;99943.03;1745212;81;26915;-69
2021/03/17 01:06:44;;;;;;;26.27;14.43;;;;;;;5.49;70.41;99938.36;1737138;81;22869;-70
2021/03/17 01:09:10;;;;;;;30.12;14.18;;;;;;;5.35;71.11;99948.67;1748657;81;28349;-70
2021/03/17 01:11:36;;;;;;;31.15;15.32;;;;;;;5.36;71.27;99943.80;1752452;81;26736;-70
2021/03/17 01:14:02;;;;;;;26.62;13.83;;;;;;;5.39;71.06;99945.31;1745480;81;21185;-70
2021/03/17 01:16:27;;;;;;;24.03;13.50;;;;;;;5.39;70.90;99940.92;1741101;81;24549;-69
2021/03/17 01:18:53;;;;;;;30.10;14.03;;;;;;;5.35;71.32;99942.13;1740583;81;21828;-70
2021/03/17 01:21:19;;;;;;;26.95;14.47;;;;;;;5.34;71.87;99940.45;1745195;81;27574;-70
2021/03/17 01:23:44;;;;;;;24.15;12.40;;;;;;;5.42;71.72;99946.86;1742776;81;26469;-70
2021/03/17 01:26:10;;;;;;;25.85;13.95;;;;;;;5.45;71.57;99936.12;1739846;81;21429;-70
2021/03/17 01:28:36;;;;;;;26.10;14.07;;;;;;;5.51;71.58;99940.84;1750759;81;26561;-70
2021/03/17 01:31:02;;;;;;;22.73;14.00;;;;;;;5.62;70.87;99934.70;1746263;81;22828;-69
2021/03/17 01:33:29;;;;;;;24.63;13.20;;;;;;;5.47;70.65;99914.09;1740246;81;28670;-70
2021/03/17 01:35:55;;;;;;;25.72;12.95;;;;;;;5.68;70.31;99935.02;1751350;81;21899;-69
2021/03/17 01:38:21;;;;;;;25.77;14.27;;;;;;;5.51;70.89;99943.47;1753138;81;21789;-70
2021/03/17 01:40:47;;;;;;;21.17;12.95;;;;;;;5.45;71.15;99941.36;1747569;81;21224;-69
2021/03/17 01:43:13;;;;;;;22.97;13.07;;;;;;;5.49;70.99;99934.92;1746084;81;22872;-70
2021/03/17 01:45:40;;;;;;;23.10;13.30;;;;;;;5.45;71.13;99934.81;1751133;81;21681;-70
2021/03/17 01:48:06;;;;;;;24.85;12.20;;;;;;;5.52;70.91;99940.72;1737461;81;21288;-69
2021/03/17 01:50:36;;;;;;;25.10;12.35;;;;;;;5.46;71.20;99937.80;1744648;81;22052;-69
2021/03/17 01:53:25;;;;;;;20.17;12.53;;;;;;;5.49;71.22;99942.77;1739660;81;21220;-70
2021/03/17 01:55:51;;;;;;;22.82;11.93;;;;;;;5.44;71.28;99942.31;1747285;81;21233;-69
2021/03/17 01:58:16;;;;;;;24.85;12.65;;;;;;;5.40;71.52;99942.56;1749524;81;28368;-69
2021/03/17 02:00:42;;;;;;;23.10;13.32;;;;;;;5.46;71.28;99941.72;1765892;81;27126;-69
2021/03/17 02:03:08;;;;;;;28.50;13.50;;;;;;;5.24;72.17;99935.66;1742097;81;21717;-70
2021/03/17 02:05:40;;;;;;;24.83;12.70;;;;;;;5.18;72.44;99940.91;1734341;81;23573;-68
2021/03/17 02:08:11;;;;;;;21.48;13.38;;;;;;;5.26;72.30;99938.96;1737537;81;21196;-69
2021/03/17 02:10:38;;;;;;;24.95;12.40;;;;;;;5.30;71.95;99939.07;1748481;81;21220;-69
2021/03/17 02:13:35;;;;;;;25.02;13.38;;;;;;;5.35;71.70;99940.82;1742413;81;21220;-69
2021/03/17 02:16:27;;;;;;;24.30;13.13;;;;;;;5.33;71.77;99942.74;1761458;81;22506;-69
2021/03/17 02:19:07;;;;;;;23.95;13.20;;;;;;;5.34;71.62;99941.77;1761006;81;21203;-71
2021/03/17 02:21:55;;;;;;;23.30;12.85;;;;;;;5.22;72.39;99948.05;1763923;81;21235;-71
2021/03/17 02:24:39;;;;;;;25.62;13.62;;;;;;;5.08;73.21;99950.95;1744835;81;21203;-70
2021/03/17 02:27:51;;;;;;;26.52;12.85;;;;;;;5.13;72.97;99947.50;1764840;81;21204;-70
2021/03/17 02:30:48;;;;;;;25.45;13.25;;;;;;;5.11;72.94;99945.00;1746441;81;22528;-69
2021/03/17 02:34:12;;;;;;;25.17;12.68;;;;;;;5.14;72.73;99943.90;1752967;81;22409;-70
2021/03/17 02:36:48;;;;;;;23.75;12.88;;;;;;;5.07;73.14;99942.77;1742731;81;21232;-70
2021/03/17 02:39:35;;;;;;;25.08;13.18;;;;;;;5.03;73.95;99946.94;1763064;81;21626;-70
2021/03/17 02:42:22;;;;;;;28.77;13.68;;;;;;;4.99;74.20;99946.00;1764257;81;21224;-70
2021/03/17 02:44:58;;;;;;;26.55;13.62;;;;;;;4.86;74.58;99950.08;1741436;81;21239;-70
2021/03/17 02:47:25;;;;;;;24.70;12.93;;;;;;;4.92;74.55;99946.96;1761656;80;21263;-70
2021/03/17 02:49:51;;;;;;;23.62;12.93;;;;;;;5.02;73.83;99945.27;1764078;80;21202;-70
2021/03/17 02:52:17;;;;;;;23.62;12.85;;;;;;;4.87;74.32;99947.00;1763910;80;21319;-70
2021/03/17 02:54:44;;;;;;;24.12;13.68;;;;;;;4.92;74.04;99950.89;1767778;80;26570;-70
2021/03/17 02:57:21;;;;;;;21.37;12.45;;;;;;;4.89;74.33;99947.21;1735877;80;21686;-70
2021/03/17 02:59:53;;;;;;;24.55;12.20;;;;;;;4.86;74.21;99947.45;1758919;80;21210;-69
2021/03/17 03:02:20;;;;;;;24.35;13.48;;;;;;;4.66;75.41;99949.06;1764762;80;21643;-69
2021/03/17 03:04:46;;;;;;;24.25;12.70;;;;;;;4.64;75.37;99940.03;1763184;80;21228;-70
2021/03/17 03:07:12;;;;;;;23.38;12.80;;;;;;;4.78;74.55;99948.56;1764125;80;26064;-69
2021/03/17 03:09:37;;;;;;;24.55;13.35;;;;;;;4.77;74.89;99948.20;1758121;80;21451;-70
2021/03/17 03:12:05;;;;;;;27.33;13.33;;;;;;;4.64;75.39;99952.28;1736913;80;22524;-70
2021/03/17 03:14:31;;;;;;;26.60;13.62;;;;;;;4.62;75.57;99943.74;1743933;80;21822;-70
2021/03/17 03:16:58;;;;;;;22.35;12.80;;;;;;;4.52;76.01;99953.27;1763205;79;26769;-70
2021/03/17 03:19:29;;;;;;;22.85;12.10;;;;;;;4.39;76.62;99949.49;1758559;80;21525;-69
2021/03/17 03:21:55;;;;;;;22.07;11.93;;;;;;;4.45;76.49;99950.31;1762419;80;21232;-69
2021/03/17 03:24:21;;;;;;;22.13;11.67;;;;;;;4.41;76.84;99956.73;1738201;80;25506;-69
2021/03/17 03:26:50;;;;;;;22.02;11.65;;;;;;;4.44;76.52;99955.18;1757822;80;21554;-69
2021/03/17 03:29:16;;;;;;;23.55;12.55;;;;;;;4.43;76.58;99954.84;1756301;80;21677;-70
2021/03/17 03:31:42;;;;;;;23.80;12.10;;;;;;;4.48;76.40;99960.53;1759843;80;26543;-70
2021/03/17 03:34:08;;;;;;;24.00;11.80;;;;;;;4.56;76.07;99960.74;1759351;80;22455;-69
2021/03/17 03:36:34;;;;;;;23.92;12.20;;;;;;;4.60;76.06;99966.55;1765290;80;21228;-69
2021/03/17 03:39:00;;;;;;;19.73;11.37;;;;;;;4.60;75.91;99971.33;1759176;80;21597;-68
2021/03/17 03:41:26;;;;;;;22.13;11.10;;;;;;;4.57;75.90;99972.88;1761772;80;27323;-69
2021/03/17 03:43:52;;;;;;;21.90;11.18;;;;;;;4.68;75.56;99982.48;1761190;80;21189;-70
2021/03/17 03:46:18;;;;;;;20.07;10.30;;;;;;;4.68;75.41;99979.38;1761942;80;21188;-70
2021/03/17 03:48:44;;;;;;;26.25;13.72;;;;;;;4.38;76.18;99975.27;1761943;79;21181;-69
2021/03/17 03:51:10;;;;;;;24.93;12.57;;;;;;;4.35;76.00;99975.52;1758204;80;20950;-70
2021/03/17 03:53:47;;;;;;;27.98;15.03;;;;;;;4.36;75.78;99974.56;1770367;80;26767;-70
2021/03/17 03:56:41;;;;;;;25.85;13.95;;;;;;;4.23;76.44;99972.91;1777332;80;22068;-70
2021/03/17 03:59:10;;;;;;;29.23;15.68;;;;;;;4.23;76.37;99979.45;1699365;80;21936;-70
2021/03/17 04:01:48;;;;;;;30.48;16.45;;;;;;;4.29;76.85;99982.89;1775880;80;21422;-70
2021/03/17 04:04:18;;;;;;;34.35;18.37;;;;;;;4.38;77.06;99983.11;1785598;80;21204;-69
2021/03/17 04:06:50;;;;;;;33.28;17.42;;;;;;;4.47;76.43;99990.23;1779272;79;21196;-69
2021/03/17 04:09:17;;;;;;;36.68;19.65;;;;;;;4.36;76.93;99990.25;1751039;80;21253;-69
2021/03/17 04:11:42;;;;;;;40.10;20.05;;;;;;;4.26;77.04;99993.59;1762932;80;21244;-69
2021/03/17 04:14:09;;;;;;;46.03;23.70;;;;;;;4.34;76.59;99993.48;1788098;79;23531;-69
2021/03/17 04:16:35;;;;;;;50.03;25.35;;;;;;;4.14;77.04;100003.68;1781506;80;21215;-69
2021/03/17 04:19:01;;;;;;;49.65;25.27;;;;;;;4.08;77.28;100007.59;1764353;80;21227;-69
2021/03/17 04:21:29;;;;;;;49.20;24.37;;;;;;;4.09;77.10;100003.21;1785784;80;23241;-70
2021/03/17 04:23:56;;;;;;;;;;;;;;;4.15;76.90;100017.12;1777231;80;21634;-71
2021/03/17 04:26:22;;;;;;;;;;;;;;;4.01;76.51;100015.56;1777476;80;20561;-70
2021/03/17 04:28:48;;;;;;;28.93;15.10;;;;;;;3.88;76.81;100018.25;1768041;80;20233;-71
2021/03/17 04:31:15;;;;;;;27.30;14.37;;;;;;;3.82;77.05;100008.27;1784705;80;25923;-69
2021/03/17 04:33:40;;;;;;;25.60;12.55;;;;;;;3.90;76.89;100018.98;1775953;80;21204;-70
2021/03/17 04:36:07;;;;;;;25.87;13.40;;;;;;;3.71;77.43;100013.48;1774108;79;21326;-70
2021/03/17 04:38:33;;;;;;;28.03;14.40;;;;;;;3.65;77.72;100010.02;1759268;80;21521;-70
2021/03/17 04:40:59;;;;;;;28.40;14.13;;;;;;;3.75;77.44;100004.47;1766699;80;20936;-70
2021/03/17 04:43:24;;;;;;;24.97;13.57;;;;;;;3.66;78.07;100005.16;1745357;80;26802;-70
2021/03/17 04:45:51;;;;;;;24.87;13.63;;;;;;;3.65;78.12;100008.71;1762566;80;23863;-69
2021/03/17 04:48:17;;;;;;;23.25;13.05;;;;;;;3.62;78.28;100011.10;1770736;80;21344;-68
2021/03/17 04:50:43;;;;;;;24.05;12.82;;;;;;;3.78;77.75;100019.91;1767700;80;21241;-69
2021/03/17 04:53:10;;;;;;;17.53;10.70;;;;;;;3.53;78.49;100038.72;1749175;80;20938;-70
2021/03/17 04:55:36;;;;;;;21.87;10.70;;;;;;;3.31;79.21;100037.31;1768834;80;26622;-69
2021/03/17 04:58:02;;;;;;;18.85;10.90;;;;;;;3.43;78.81;100030.37;1770426;80;21221;-70
2021/03/17 05:00:29;;;;;;;18.60;10.30;;;;;;;3.45;78.89;100031.94;1772162;80;22010;-70
2021/03/17 05:02:58;;;;;;;13.70;7.53;;;;;;;3.49;78.79;100037.27;1771088;79;21198;-70
2021/03/17 05:05:24;;;;;;;17.30;8.88;;;;;;;3.48;78.72;100044.77;1769756;80;21210;-69
2021/03/17 05:07:51;;;;;;;15.33;9.00;;;;;;;3.51;78.41;100039.77;1759775;80;25840;-69
2021/03/17 05:10:17;;;;;;;15.23;8.33;;;;;;;3.26;79.28;100036.83;1764679;80;21602;-69
2021/03/17 05:12:42;;;;;;;17.53;9.80;;;;;;;3.31;79.45;100041.23;1735304;80;22475;-69
2021/03/17 05:15:09;;;;;;;19.73;9.97;;;;;;;3.48;79.10;100041.30;1770484;80;20937;-69
2021/03/17 05:17:35;;;;;;;17.20;9.93;;;;;;;3.57;78.98;100045.39;1757709;80;21202;-69
2021/03/17 05:20:05;;;;;;;16.52;9.55;;;;;;;3.68;78.39;100047.66;1706716;80;21227;-69
2021/03/17 05:22:31;;;;;;;19.52;10.48;;;;;;;3.76;78.02;100041.41;1762665;80;21228;-70
2021/03/17 05:24:57;;;;;;;16.57;9.60;;;;;;;3.81;77.37;100048.41;1773417;80;21370;-70
2021/03/17 05:27:27;;;;;;;17.90;9.90;;;;;;;3.64;77.96;100047.55;1765496;80;21638;-69
2021/03/17 05:29:53;;;;;;;17.40;10.10;;;;;;;3.56;78.40;100049.42;1764575;80;21527;-68
2021/03/17 05:32:18;;;;;;;18.13;10.23;;;;;;;3.74;77.78;100049.36;1707919;83;25878;-69
2021/03/17 05:34:58;;;;;;;18.57;11.27;;;;;;;3.80;77.58;100051.96;1763927;80;24294;-69
2021/03/17 05:37:25;;;;;;;18.80;10.88;;;;;;;3.73;78.20;100049.47;1762356;79;21224;-69
2021/03/17 05:39:51;;;;;;;21.62;11.25;;;;;;;3.69;78.34;100053.25;1767297;80;21628;-68
2021/03/17 05:42:16;;;;;;;18.90;10.90;;;;;;;3.84;78.81;100059.09;1762511;80;21024;-69
2021/03/17 05:44:42;;;;;;;20.53;11.57;;;;;;;3.69;77.85;100055.86;1765672;80;27824;-69
2021/03/17 05:47:09;;;;;;;20.57;11.17;;;;;;;3.50;78.51;100066.36;1765687;80;25105;-69
2021/03/17 05:49:37;;;;;;;20.43;10.70;;;;;;;3.71;77.87;100066.56;1766839;80;21630;-68
2021/03/17 05:52:03;;;;;;;19.57;10.80;;;;;;;3.62;78.32;100067.69;1768071;80;21227;-69
2021/03/17 05:54:30;;;;;;;17.73;10.63;;;;;;;3.56;78.08;100072.91;1776495;80;21180;-69
2021/03/17 05:56:55;;;;;;;15.55;8.20;;;;;;;3.56;77.95;100073.73;1748098;80;21184;-69
2021/03/17 05:59:21;;;;;;;17.23;9.33;;;;;;;3.49;77.99;100069.90;1770091;80;25241;-69
2021/03/17 06:01:47;;;;;;;15.60;9.37;;;;;;;3.63;77.68;100071.98;1758862;80;21164;-69
2021/03/17 06:04:12;;;;;;;19.57;9.27;;;;;;;3.64;77.61;100064.52;1772837;80;21581;-69
2021/03/17 06:06:38;;;;;;;12.90;7.70;;;;;;;3.81;77.10;100074.53;1775149;80;20915;-69
2021/03/17 06:09:04;;;;;;;14.17;8.50;;;;;;;3.78;76.98;100077.37;1783933;79;26875;-68
2021/03/17 06:11:31;;;;;;;15.60;8.73;;;;;;;3.94;76.69;100079.66;1777229;80;21212;-69
2021/03/17 06:13:57;;;;;;;17.92;8.68;;;;;;;4.01;76.35;100078.72;1739679;80;21539;-69
2021/03/17 06:16:23;;;;;;;18.90;10.23;;;;;;;4.05;76.25;100078.86;1757307;80;21546;-68
2021/03/17 06:18:55;;;;;;;17.45;9.93;;;;;;;3.89;76.73;100083.93;1771253;79;21176;-69
2021/03/17 06:21:21;;;;;;;17.82;9.85;;;;;;;3.92;76.49;100085.00;1771851;80;21231;-68
2021/03/17 06:23:50;;;;;;;18.10;8.83;;;;;;;3.98;76.34;100085.48;1777375;80;27639;-68
2021/03/17 06:26:17;;;;;;;15.32;8.70;;;;;;;3.91;76.36;100091.16;1788297;80;21255;-69
2021/03/17 06:28:43;;;;;;;14.80;7.87;;;;;;;4.03;75.83;100089.91;1759128;80;21233;-68
2021/03/17 06:31:09;;;;;;;16.93;8.90;;;;;;;3.95;75.76;100094.41;1777011;80;21037;-68
2021/03/17 06:33:35;;;;;;;13.90;8.60;;;;;;;3.97;76.07;100099.52;1767040;80;21200;-68
2021/03/17 06:36:15;;;;;;;16.17;9.27;;;;;;;3.97;75.90;100100.82;1750955;79;24802;-69
2021/03/17 06:38:41;;;;;;;18.73;9.38;;;;;;;3.96;75.83;100097.35;1783463;80;21578;-68
2021/03/17 06:41:07;;;;;;;15.70;9.03;;;;;;;4.16;75.80;100097.65;1743396;80;23977;-68
2021/03/17 06:43:47;;;;;;;15.32;9.55;;;;;;;4.24;75.58;100103.97;1746394;80;21217;-69
2021/03/17 06:46:18;;;;;;;15.58;9.43;;;;;;;4.08;75.53;100111.29;1753623;81;21230;-70
2021/03/17 06:48:44;;;;;;;15.83;9.33;;;;;;;4.29;75.09;100104.93;1757275;81;21227;-71
2021/03/17 06:51:18;;;;;;;18.15;9.35;;;;;;;4.15;75.57;100105.97;1748131;81;21620;-70
2021/03/17 06:53:56;;;;;;;16.55;9.60;;;;;;;3.83;76.50;100109.20;1743479;81;21938;-71
2021/03/17 06:56:32;;;;;;;17.15;9.70;;;;;;;4.11;76.01;100110.58;1716037;82;21215;-70
2021/03/17 06:59:06;;;;;;;18.67;9.90;;;;;;;4.24;75.57;100111.81;1716714;82;21236;-69
2021/03/17 07:01:42;;;;;;;16.05;8.85;;;;;;;4.29;75.27;100113.59;1752148;81;21186;-70
2021/03/17 07:04:12;;;;;;;13.75;8.10;;;;;;;4.26;75.64;100111.21;1764696;80;22097;-71
2021/03/17 07:06:43;;;;;;;18.95;8.63;;;;;;;4.21;75.67;100114.66;1771194;79;21223;-71
2021/03/17 07:09:21;;;;;;;18.07;10.63;;;;;;;4.18;75.99;100113.58;1771820;80;21165;-70
2021/03/17 07:11:50;;;;;;;20.10;10.05;;;;;;;4.23;76.14;100117.98;1737600;81;21670;-69
2021/03/17 07:14:26;;;;;;;24.67;10.72;;;;;;;4.38;75.68;100117.75;1776504;79;21641;-68
2021/03/17 07:16:52;;;;;;;20.37;9.73;;;;;;;4.29;75.92;100121.44;1737816;81;21272;-71
2021/03/17 07:19:38;;;;;;;21.63;10.97;;;;;;;4.20;76.32;100123.44;1676703;82;21090;-71
2021/03/17 07:22:10;;;;;;;30.55;11.20;;;;;;;4.29;75.94;100119.30;1710823;82;21248;-71
2021/03/17 07:24:40;;;;;;;23.00;11.12;;;;;;;4.52;75.43;100117.52;1719916;82;21227;-70
2021/03/17 07:27:20;;;;;;;19.12;10.35;;;;;;;4.36;76.00;100115.74;1718087;82;21233;-70
2021/03/17 07:30:02;;;;;;;21.65;11.03;;;;;;;4.40;75.87;100120.62;1711407;82;21421;-70
2021/03/17 07:32:30;;;;;;;25.37;12.00;;;;;;;4.54;75.53;100118.26;1762621;80;21149;-70
2021/03/17 07:34:55;;;;;;;20.90;10.93;;;;;;;4.54;75.27;100116.95;1737273;80;21494;-70
2021/03/17 07:37:25;;;;;;;21.03;11.30;;;;;;;4.64;75.08;100114.45;1761920;80;27821;-71
2021/03/17 07:39:51;;;;;;;20.65;11.15;;;;;;;4.47;74.90;100100.05;1768163;80;21632;-70
2021/03/17 07:42:16;;;;;;;21.17;10.60;;;;;;;4.61;74.47;100119.42;1768963;80;21561;-70
2021/03/17 07:44:42;;;;;;;21.13;10.97;;;;;;;4.70;74.41;100123.61;1763716;80;22523;-71
2021/03/17 07:47:10;;;;;;;17.23;9.75;;;;;;;4.73;74.30;100123.38;1765307;80;21193;-70
2021/03/17 07:49:39;;;;;;;23.57;11.30;;;;;;;4.63;74.63;100116.24;1764002;80;21212;-70
2021/03/17 07:52:05;;;;;;;19.30;10.03;;;;;;;4.68;74.77;100110.66;1766189;80;21216;-73
2021/03/17 07:54:33;;;;;;;20.73;10.00;;;;;;;4.56;75.18;100115.52;1766387;80;22290;-70
2021/03/17 07:57:02;;;;;;;17.87;8.63;;;;;;;4.61;75.30;100115.50;1759311;80;21207;-71
2021/03/17 07:59:27;;;;;;;16.77;9.55;;;;;;;4.67;75.85;100124.19;1757154;80;21209;-71
2021/03/17 08:01:57;;;;;;;13.37;8.83;;;;;;;4.87;75.40;100120.51;1756147;80;26822;-71
2021/03/17 08:04:29;;;;;;;15.65;8.58;;;;;;;4.94;74.66;100124.31;1744378;80;21254;-71
2021/03/17 08:07:03;;;;;;;15.95;8.68;;;;;;;4.99;74.45;100116.92;1742260;80;21575;-70
2021/03/17 08:09:29;;;;;;;15.63;8.40;;;;;;;5.19;74.28;100122.38;1742515;80;21191;-71
2021/03/17 08:11:56;;;;;;;18.07;8.87;;;;;;;5.18;74.08;100120.22;1763701;80;20915;-70
2021/03/17 08:14:22;;;;;;;;;;;;;;;5.17;74.11;100126.89;1749836;80;21209;-70
2021/03/17 08:16:48;;;;;;;13.07;7.43;;;;;;;5.27;73.86;100127.83;1764089;80;25739;-71
2021/03/17 08:19:29;;;;;;;13.37;7.93;;;;;;;5.21;73.78;100125.70;1750973;80;21987;-70
2021/03/17 08:22:00;;;;;;;13.48;8.20;;;;;;;5.34;73.58;100128.98;1757181;79;21214;-70
2021/03/17 08:24:35;;;;;;;12.55;7.75;;;;;;;5.33;73.22;100123.87;1759195;80;21224;-70
2021/03/17 08:27:12;;;;;;;16.80;9.05;;;;;;;5.34;73.22;100118.52;1747445;80;21226;-72
2021/03/17 08:29:44;;;;;;;13.15;8.38;;;;;;;5.39;73.07;100129.47;1747637;80;21528;-70
2021/03/17 08:32:12;;;;;;;13.05;7.53;;;;;;;4.89;73.84;100131.67;1746602;80;22015;-71
2021/03/17 08:34:38;;;;;;;13.50;7.42;;;;;;;4.77;74.33;100127.39;1742175;80;21205;-71
2021/03/17 08:37:10;;;;;;;11.95;7.75;;;;;;;4.93;74.14;100129.67;1753177;80;21547;-71
2021/03/17 08:39:44;;;;;;;13.50;8.03;;;;;;;5.12;73.72;100142.14;1748571;80;21257;-70
2021/03/17 08:42:13;;;;;;;12.10;7.67;;;;;;;4.78;74.61;100136.44;1756778;80;21483;-70
2021/03/17 08:44:44;;;;;;;14.53;8.00;;;;;;;5.20;73.63;100124.03;1751175;80;21227;-69
2021/03/17 08:47:34;;;;;;;14.43;7.72;;;;;;;5.24;73.03;100120.22;1744603;80;21657;-69
2021/03/17 08:50:19;;;;;;;12.53;8.60;;;;;;;5.27;72.38;100127.83;1762089;80;21253;-69
2021/03/17 08:52:49;;;;;;;18.70;9.20;;;;;;;4.97;72.29;100126.70;1749621;80;21225;-70
2021/03/17 08:55:20;;;;;;;16.97;9.30;;;;;;;5.22;72.23;100132.61;1765975;80;21221;-71
2021/03/17 08:57:54;;;;;;;16.25;9.80;;;;;;;5.20;71.91;100118.79;1757944;80;21630;-69
2021/03/17 09:00:54;;;;;;;17.23;10.80;;;;;;;5.11;71.98;100129.53;1755783;80;21197;-70
2021/03/17 09:03:43;;;;;;;14.43;8.85;;;;;;;5.32;71.69;100117.81;1764950;80;21620;-69
2021/03/17 09:06:18;;;;;;;18.10;11.05;;;;;;;5.48;71.00;100106.92;1755826;80;21200;-69
2021/03/17 09:08:58;;;;;;;21.50;13.43;;;;;;;5.65;70.98;100114.72;1755135;80;21249;-70
2021/03/17 09:11:35;;;;;;;19.85;13.08;;;;;;;5.63;70.68;100116.64;1754293;80;21456;-70
2021/03/17 09:14:04;;;;;;;21.12;13.68;;;;;;;5.36;70.83;100127.09;1765688;80;28689;-70
2021/03/17 09:16:33;;;;;;;18.77;13.35;;;;;;;5.02;71.73;100129.77;1758361;79;21168;-70
2021/03/17 09:19:13;;;;;;;21.85;13.18;;;;;;;5.42;71.19;100132.78;1746870;80;21194;-69
2021/03/17 09:21:41;;;;;;;21.35;14.07;;;;;;;5.36;70.86;100134.95;1763450;80;21190;-69
2021/03/17 09:24:33;;;;;;;21.02;14.07;;;;;;;5.27;71.30;100127.83;1747729;80;22062;-69
2021/03/17 09:27:04;;;;;;;28.25;16.77;;;;;;;5.45;70.87;100124.20;1750748;80;21708;-70
2021/03/17 09:29:31;;;;;;;26.80;17.70;;;;;;;5.67;69.88;100136.87;1748441;80;21192;-70
2021/03/17 09:31:56;;;;;;;24.55;16.05;;;;;;;5.52;70.75;100125.86;1745195;80;21218;-70
2021/03/17 09:34:28;;;;;;;21.45;15.25;;;;;;;5.29;71.47;100132.45;1765298;80;27019;-69
2021/03/17 09:37:08;;;;;;;24.05;15.30;;;;;;;5.56;70.97;100140.35;1742528;80;21411;-70
2021/03/17 09:39:35;;;;;;;26.85;17.82;;;;;;;5.64;71.07;100130.11;1751463;80;21225;-70
2021/03/17 09:42:01;;;;;;;25.40;16.27;;;;;;;5.60;70.94;100133.92;1736932;80;21238;-71
2021/03/17 09:44:27;;;;;;;28.23;17.35;;;;;;;5.70;70.96;100142.70;1758644;80;28368;-72
2021/03/17 09:46:55;;;;;;;21.70;15.05;;;;;;;5.78;70.65;100149.95;1756683;80;27265;-71
2021/03/17 09:49:24;;;;;;;19.65;14.03;;;;;;;5.80;70.62;100145.41;1733239;80;22243;-70
2021/03/17 09:51:55;;;;;;;21.42;14.10;;;;;;;5.87;70.28;100145.72;1755800;80;21199;-71
2021/03/17 09:54:24;;;;;;;20.65;13.85;;;;;;;6.03;69.99;100144.00;1751580;80;21242;-72
2021/03/17 09:56:51;;;;;;;16.60;11.83;;;;;;;5.99;69.94;100149.98;1763038;80;21613;-72
2021/03/17 09:59:42;;;;;;;18.90;11.75;;;;;;;5.85;70.49;100151.58;1763762;80;21210;-70
2021/03/17 10:02:25;;;;;;;16.82;11.12;;;;;;;5.75;70.66;100151.02;1769959;80;21462;-70
2021/03/17 10:04:53;;;;;;;16.73;10.13;;;;;;;6.05;70.21;100144.23;1765312;80;21901;-69
2021/03/17 10:07:24;;;;;;;14.13;8.88;;;;;;;6.12;69.71;100144.55;1769703;80;21194;-69
2021/03/17 10:09:51;;;;;;;14.33;8.83;;;;;;;6.01;69.74;100139.38;1761193;80;21291;-69
2021/03/17 10:12:19;;;;;;;12.58;8.48;;;;;;;6.10;69.69;100134.19;1766552;80;21237;-68
2021/03/17 10:14:48;;;;;;;11.97;7.58;;;;;;;6.10;69.47;100147.30;1767079;80;21718;-68
2021/03/17 10:17:18;;;;;;;12.55;7.25;;;;;;;6.12;68.74;100147.17;1760828;80;21194;-70
2021/03/17 10:19:52;;;;;;;10.68;7.25;;;;;;;6.13;69.17;100150.16;1765351;80;21216;-69
2021/03/17 10:22:18;;;;;;;13.03;7.75;;;;;;;6.17;69.17;100163.83;1762896;80;21161;-69
2021/03/17 10:24:46;;;;;;;13.00;8.03;;;;;;;6.09;68.85;100157.45;1773260;80;22399;-70
2021/03/17 10:27:19;;;;;;;12.35;7.92;;;;;;;6.08;68.62;100149.23;1771423;80;21216;-70
2021/03/17 10:29:47;;;;;;;13.25;7.85;;;;;;;6.03;68.87;100151.87;1764801;80;21250;-70
2021/03/17 10:32:16;;;;;;;16.23;9.08;;;;;;;5.98;69.05;100157.52;1764494;80;21216;-70
2021/03/17 10:34:42;;;;;;;13.58;8.25;;;;;;;6.09;69.20;100150.90;1760736;80;21259;-71
2021/03/17 10:37:13;;;;;;;15.05;7.97;;;;;;;5.89;69.35;100154.31;1766316;80;26774;-70
2021/03/17 10:39:39;;;;;;;12.20;8.00;;;;;;;5.72;70.07;100164.37;1765575;80;21646;-69
2021/03/17 10:42:27;;;;;;;12.88;8.43;;;;;;;5.87;69.93;100150.96;1767787;80;21208;-70
2021/03/17 10:45:10;;;;;;;14.23;8.05;;;;;;;5.82;69.94;100154.45;1770373;80;21258;-70
2021/03/17 10:47:37;;;;;;;11.43;7.70;;;;;;;5.94;69.74;100152.13;1769659;80;21212;-70
2021/03/17 10:50:07;;;;;;;16.50;7.33;;;;;;;5.74;70.16;100154.58;1765245;80;21861;-71
2021/03/17 10:52:35;;;;;;;12.45;7.80;;;;;;;6.09;69.27;100152.21;1761050;80;21292;-69
2021/03/17 10:58:15;;;;;;;11.95;7.85;;;;;;;6.67;67.43;100148.76;1734584;81;21215;-70
2021/03/17 11:00:46;;;;;;;9.75;6.70;;;;;;;6.66;67.33;100142.66;1733820;81;21247;-70
2021/03/17 11:03:40;;;;;;;11.93;7.40;;;;;;;6.65;66.76;100146.27;1728734;81;21223;-70
2021/03/17 11:06:16;;;;;;;13.83;9.20;;;;;;;6.59;66.96;100152.86;1729805;81;22820;-70
2021/03/17 11:08:43;;;;;;;12.80;8.73;;;;;;;6.40;67.66;100155.36;1723652;81;21242;-70
2021/03/17 11:11:10;;;;;;;14.33;8.90;;;;;;;6.55;67.43;100150.62;1729625;81;21694;-68
2021/03/17 11:13:46;;;;;;;13.58;9.13;;;;;;;6.68;67.14;100150.40;1727217;81;21249;-68
2021/03/17 11:16:16;;;;;;;13.68;8.68;;;;;;;6.57;66.79;100148.69;1728102;81;21215;-67
2021/03/17 11:18:51;;;;;;;10.28;7.03;;;;;;;6.59;66.12;100155.48;1727116;81;21882;-68
2021/03/17 11:21:35;;;;;;;11.10;6.97;;;;;;;6.58;66.16;100154.30;1728055;81;21243;-69
2021/03/17 11:24:03;;;;;;;12.80;7.45;;;;;;;6.60;65.94;100153.68;1729404;81;21155;-69
2021/03/17 11:26:39;;;;;;;11.53;6.87;;;;;;;6.52;66.14;100166.63;1727891;81;21728;-72
2021/03/17 11:29:15;;;;;;;10.95;7.50;;;;;;;6.42;66.48;100156.91;1730629;81;21263;-70
2021/03/17 11:31:41;;;;;;;10.65;7.10;;;;;;;6.27;67.15;100155.08;1730242;81;22204;-71
2021/03/17 11:34:08;;;;;;;11.93;7.60;;;;;;;6.41;66.75;100149.98;1691341;81;21286;-69
2021/03/17 11:36:34;;;;;;;9.85;7.03;;;;;;;6.57;66.53;100151.31;1728177;81;21176;-70
2021/03/17 11:39:12;;;;;;;10.38;6.55;;;;;;;6.50;66.57;100155.44;1731161;81;28509;-70
2021/03/17 11:41:39;;;;;;;10.35;7.00;;;;;;;6.57;65.48;100148.69;1729369;81;21198;-71